createdAt,value
2019-05-17T00:00:08.628Z,100364.25
2019-05-17T00:02:37.628Z,100362.70
2019-05-17T00:05:08.621Z,100361.73
2019-05-17T00:07:37.240Z,100358.34
2019-05-17T00:10:07.034Z,100351.98
2019-05-17T00:12:36.723Z,100350.47
2019-05-17T00:15:07.116Z,100349.11
2019-05-17T00:17:37.773Z,100346.83
2019-05-17T00:20:10.347Z,100353.02
2019-05-17T00:22:38.762Z,100353.34
2019-05-17T00:25:07.661Z,100346.09
2019-05-17T00:27:36.947Z,100349.77
2019-05-17T00:30:10.127Z,100346.80
2019-05-17T00:32:38.540Z,100342.70
2019-05-17T00:35:07.822Z,100337.59
2019-05-17T00:37:37.263Z,100334.91
2019-05-17T00:40:08.577Z,100332.59
2019-05-17T00:42:37.435Z,100327.02
2019-05-17T00:45:07.835Z,100330.08
2019-05-17T00:47:37.518Z,100319.78
2019-05-17T00:50:07.718Z,100319.17
2019-05-17T00:52:36.820Z,100318.61
2019-05-17T00:55:09.128Z,100320.23
2019-05-17T00:57:37.548Z,100314.09
2019-05-17T01:00:08.548Z,100315.97
2019-05-17T01:02:37.132Z,100314.23
2019-05-17T01:05:07.241Z,100311.37
2019-05-17T01:07:37.636Z,100309.74
2019-05-17T01:10:07.967Z,100311.32
2019-05-17T01:12:36.729Z,100309.79
2019-05-17T01:15:08.865Z,100305.19
2019-05-17T01:17:37.271Z,100297.87
2019-05-17T01:20:09.274Z,100297.36
2019-05-17T01:22:37.723Z,100296.19
2019-05-17T01:25:07.685Z,100293.54
2019-05-17T01:27:38.161Z,100286.09
2019-05-17T01:30:07.969Z,100289.75
2019-05-17T01:32:37.372Z,100289.16
2019-05-17T01:35:07.272Z,100290.38
2019-05-17T01:37:36.975Z,100282.41
2019-05-17T01:40:07.295Z,100284.48
2019-05-17T01:42:37.494Z,100276.59
2019-05-17T01:45:07.641Z,100278.59
2019-05-17T01:47:36.896Z,100280.40
2019-05-17T01:50:08.664Z,100279.03
2019-05-17T01:52:37.215Z,100277.13
2019-05-17T01:55:07.106Z,100269.01
2019-05-17T01:57:37.027Z,100275.91
2019-05-17T02:00:12.408Z,100271.18
2019-05-17T02:02:42.484Z,100265.88
2019-05-17T02:05:11.333Z,100261.11
2019-05-17T02:07:39.753Z,100264.06
2019-05-17T02:10:09.506Z,100256.02
2019-05-17T02:12:37.995Z,100265.76
2019-05-17T02:15:10.252Z,100260.67
2019-05-17T02:17:38.677Z,100253.20
2019-05-17T02:20:08.804Z,100250.49
2019-05-17T02:22:37.232Z,100258.38
2019-05-17T02:25:10.366Z,100254.69
2019-05-17T02:27:41.863Z,100250.20
2019-05-17T02:30:14.041Z,100252.98
2019-05-17T02:32:43.097Z,100253.72
2019-05-17T02:35:14.274Z,100253.73
2019-05-17T02:37:43.392Z,100256.98
2019-05-17T02:40:14.462Z,100257.50
2019-05-17T02:42:43.420Z,100253.11
2019-05-17T02:45:13.338Z,100251.86
2019-05-17T02:47:43.554Z,100254.24
2019-05-17T02:50:13.058Z,100248.18
2019-05-17T02:52:43.476Z,100245.56
2019-05-17T02:55:12.874Z,100240.31
2019-05-17T02:57:43.435Z,100241.34
2019-05-17T03:00:13.311Z,100242.34
2019-05-17T03:02:43.471Z,100239.98
2019-05-17T03:05:13.601Z,100240.11
2019-05-17T03:07:43.982Z,100241.97
2019-05-17T03:10:22.899Z,100243.02
2019-05-17T03:12:44.544Z,100240.98
2019-05-17T03:15:13.269Z,100240.34
2019-05-17T03:17:43.490Z,100235.78
2019-05-17T03:20:13.198Z,100242.88
2019-05-17T03:22:43.884Z,100238.15
2019-05-17T03:25:14.472Z,100228.33
2019-05-17T03:27:43.551Z,100232.99
2019-05-17T03:30:18.228Z,100240.58
2019-05-17T03:32:48.303Z,100242.25
2019-05-17T03:35:17.662Z,100240.58
2019-05-17T03:37:45.976Z,100239.53
2019-05-17T03:40:35.056Z,100236.40
2019-05-17T03:42:45.040Z,100238.52
2019-05-17T03:45:14.245Z,100242.38
2019-05-17T03:47:44.492Z,100241.00
2019-05-17T03:50:14.024Z,100239.86
2019-05-17T03:52:44.391Z,100239.34
2019-05-17T03:55:13.436Z,100233.40
2019-05-17T03:57:44.175Z,100239.61
2019-05-17T04:00:13.545Z,100234.31
2019-05-17T04:02:44.345Z,100231.49
2019-05-17T04:05:12.883Z,100230.30
2019-05-17T04:07:43.622Z,100226.61
2019-05-17T04:10:14.987Z,100231.92
2019-05-17T04:12:44.141Z,100228.36
2019-05-17T04:15:13.662Z,100232.45
2019-05-17T04:17:43.842Z,100231.36
2019-05-17T04:20:13.679Z,100229.78
2019-05-17T04:22:44.060Z,100232.20
2019-05-17T04:25:13.733Z,100235.59
2019-05-17T04:27:43.540Z,100233.55
2019-05-17T04:30:12.888Z,100235.45
2019-05-17T04:32:44.055Z,100234.31
2019-05-17T04:35:13.325Z,100234.59
2019-05-17T04:37:44.470Z,100239.33
2019-05-17T04:40:14.309Z,100244.59
2019-05-17T04:42:44.281Z,100237.55
2019-05-17T04:45:13.385Z,100233.91
2019-05-17T04:47:44.356Z,100238.91
2019-05-17T04:50:13.614Z,100243.57
2019-05-17T04:52:43.128Z,100241.41
2019-05-17T04:55:13.784Z,100243.13
2019-05-17T04:57:43.774Z,100245.75
2019-05-17T05:00:13.927Z,100241.05
2019-05-17T05:02:43.858Z,100254.74
2019-05-17T05:05:14.492Z,100243.54
2019-05-17T05:07:43.750Z,100244.94
2019-05-17T05:10:13.978Z,100241.20
2019-05-17T05:12:43.734Z,100244.51
2019-05-17T05:15:13.130Z,100242.82
2019-05-17T05:17:42.503Z,100239.26
2019-05-17T05:20:13.333Z,100243.74
2019-05-17T05:22:42.643Z,100240.49
2019-05-17T05:25:12.465Z,100238.92
2019-05-17T05:27:42.742Z,100236.11
2019-05-17T05:30:12.083Z,100237.17
2019-05-17T05:32:42.750Z,100237.34
2019-05-17T05:35:12.412Z,100233.14
2019-05-17T05:37:42.451Z,100242.58
2019-05-17T05:40:12.714Z,100235.06
2019-05-17T05:42:42.622Z,100234.33
2019-05-17T05:45:12.114Z,100239.76
2019-05-17T05:47:41.705Z,100236.53
2019-05-17T05:50:12.485Z,100235.70
2019-05-17T05:52:42.354Z,100242.80
2019-05-17T05:55:12.277Z,100244.15
2019-05-17T05:57:41.969Z,100241.10
2019-05-17T06:00:13.773Z,100246.78
2019-05-17T06:02:42.389Z,100237.18
2019-05-17T06:05:14.916Z,100240.19
2019-05-17T06:07:41.828Z,100233.95
2019-05-17T06:10:13.253Z,100231.81
2019-05-17T06:12:43.357Z,100238.80
2019-05-17T06:15:12.958Z,100230.63
2019-05-17T06:17:42.960Z,100230.97
2019-05-17T06:20:11.953Z,100233.63
2019-05-17T06:22:42.758Z,100235.52
2019-05-17T06:25:14.736Z,100235.11
2019-05-17T06:27:41.522Z,100237.72
2019-05-17T06:30:12.563Z,100236.96
2019-05-17T06:32:43.237Z,100234.30
2019-05-17T06:35:12.576Z,100238.92
2019-05-17T06:37:42.384Z,100242.86
2019-05-17T06:40:12.978Z,100246.20
2019-05-17T06:42:45.223Z,100240.97
2019-05-17T06:45:12.801Z,100232.04
2019-05-17T06:47:42.654Z,100238.88
2019-05-17T06:50:14.513Z,100239.96
2019-05-17T06:52:43.463Z,100232.30
2019-05-17T06:55:12.835Z,100237.59
2019-05-17T06:57:43.354Z,100238.53
2019-05-17T07:00:18.231Z,100233.84
2019-05-17T07:02:42.061Z,100238.00
2019-05-17T07:05:12.865Z,100237.73
2019-05-17T07:07:41.281Z,100239.34
2019-05-17T07:10:11.305Z,100238.61
2019-05-17T07:12:54.138Z,100235.64
2019-05-17T07:15:10.794Z,100231.79
2019-05-17T07:17:40.075Z,100232.44
2019-05-17T07:20:10.384Z,100232.91
2019-05-17T07:22:40.775Z,100238.62
2019-05-17T07:25:10.737Z,100241.09
2019-05-17T07:27:44.906Z,100234.83
2019-05-17T07:30:10.286Z,100244.37
2019-05-17T07:32:40.524Z,100250.64
2019-05-17T07:35:10.767Z,100243.66
2019-05-17T07:37:39.874Z,100238.10
2019-05-17T07:40:10.840Z,100238.52
2019-05-17T07:42:39.734Z,100241.27
2019-05-17T07:45:10.283Z,100239.67
2019-05-17T07:47:40.354Z,100239.00
2019-05-17T07:50:11.429Z,100234.28
2019-05-17T07:52:40.138Z,100235.11
2019-05-17T07:55:10.897Z,100232.41
2019-05-17T07:57:41.059Z,100243.56
2019-05-17T08:00:10.499Z,100244.03
2019-05-17T08:02:40.080Z,100241.23
2019-05-17T08:05:10.037Z,100240.28
2019-05-17T08:07:40.498Z,100239.63
2019-05-17T08:10:10.867Z,100234.41
2019-05-17T08:12:40.758Z,100233.23
2019-05-17T08:15:11.027Z,100242.92
2019-05-17T08:17:39.920Z,100228.21
2019-05-17T08:20:10.332Z,100235.59
2019-05-17T08:22:39.946Z,100224.88
2019-05-17T08:25:10.143Z,100226.52
2019-05-17T08:27:40.526Z,100213.66
2019-05-17T08:30:10.914Z,100214.14
2019-05-17T08:32:40.270Z,100211.81
2019-05-17T08:35:11.291Z,100203.58
2019-05-17T08:37:42.290Z,100201.89
2019-05-17T08:40:10.798Z,100210.72
2019-05-17T08:42:40.708Z,100199.26
2019-05-17T08:45:09.835Z,100200.16
2019-05-17T08:47:39.666Z,100196.39
2019-05-17T08:50:11.245Z,100208.78
2019-05-17T08:52:40.224Z,100200.39
2019-05-17T08:55:09.908Z,100195.70
2019-05-17T08:57:40.150Z,100195.37
2019-05-17T09:00:10.739Z,100201.88
2019-05-17T09:02:40.866Z,100197.52
2019-05-17T09:05:10.055Z,100189.52
2019-05-17T09:07:40.094Z,100188.08
2019-05-17T09:10:10.135Z,100188.19
2019-05-17T09:12:40.867Z,100188.16
2019-05-17T09:15:10.050Z,100188.09
2019-05-17T09:17:39.585Z,100184.11
2019-05-17T09:20:10.640Z,100181.48
2019-05-17T09:22:39.848Z,100176.54
2019-05-17T09:25:14.970Z,100174.84
2019-05-17T09:27:39.863Z,100169.84
2019-05-17T09:30:10.654Z,100170.92
2019-05-17T09:32:40.404Z,100170.37
2019-05-17T09:35:10.483Z,100165.34
2019-05-17T09:37:41.431Z,100170.84
2019-05-17T09:40:09.522Z,100163.02
2019-05-17T09:42:40.757Z,100160.66
2019-05-17T09:45:09.811Z,100160.89
2019-05-17T09:47:39.701Z,100160.84
2019-05-17T09:50:09.973Z,100160.45
2019-05-17T09:52:40.604Z,100156.86
2019-05-17T09:55:09.913Z,100162.52
2019-05-17T09:57:41.013Z,100160.11
2019-05-17T10:00:10.197Z,100145.61
2019-05-17T10:02:40.244Z,100150.00
2019-05-17T10:05:10.555Z,100147.73
2019-05-17T10:07:40.254Z,100141.34
2019-05-17T10:10:10.422Z,100144.59
2019-05-17T10:12:40.327Z,100136.89
2019-05-17T10:15:10.064Z,100140.27
2019-05-17T10:17:38.676Z,100129.30
2019-05-17T10:20:10.532Z,100138.02
2019-05-17T10:22:40.219Z,100138.19
2019-05-17T10:25:09.662Z,100131.22
2019-05-17T10:27:40.385Z,100127.77
2019-05-17T10:30:10.308Z,100126.77
2019-05-17T10:32:40.802Z,100124.78
2019-05-17T10:35:09.648Z,100124.55
2019-05-17T10:37:40.736Z,100128.37
2019-05-17T10:40:10.394Z,100126.98
2019-05-17T10:42:39.583Z,100132.75
2019-05-17T10:45:11.020Z,100126.05
2019-05-17T10:47:39.609Z,100128.20
2019-05-17T10:50:10.865Z,100127.64
2019-05-17T10:52:41.061Z,100126.00
2019-05-17T10:55:10.542Z,100121.30
2019-05-17T10:57:39.312Z,100117.87
2019-05-17T11:00:10.102Z,100122.69
2019-05-17T11:02:38.693Z,100112.55
2019-05-17T11:05:07.529Z,100111.16
2019-05-17T11:07:35.952Z,100115.41
2019-05-17T11:10:11.534Z,100123.10
2019-05-17T11:12:38.621Z,100112.47
2019-05-17T11:15:11.661Z,100115.64
2019-05-17T11:17:38.509Z,100105.34
2019-05-17T11:20:08.124Z,100099.78
2019-05-17T11:22:36.543Z,100099.69
2019-05-17T11:25:06.399Z,100111.28
2019-05-17T11:27:35.138Z,100103.81
2019-05-17T11:30:07.190Z,100100.08
2019-05-17T11:32:35.593Z,100110.37
2019-05-17T11:35:05.157Z,100112.97
2019-05-17T11:37:33.543Z,100108.86
2019-05-17T11:40:01.964Z,100101.28
2019-05-17T11:42:30.365Z,100110.67
2019-05-17T11:44:58.782Z,100104.78
2019-05-17T11:47:27.181Z,100096.09
2019-05-17T11:49:55.605Z,100091.33
2019-05-17T11:52:23.998Z,100093.08
2019-05-17T11:54:52.434Z,100091.28
2019-05-17T11:57:20.835Z,100085.84
2019-05-17T11:59:49.265Z,100092.27
2019-05-17T12:02:17.668Z,100093.26
2019-05-17T12:04:46.081Z,100091.47
2019-05-17T12:07:14.485Z,100090.31
2019-05-17T12:09:42.927Z,100091.87
2019-05-17T12:12:11.332Z,100079.86
2019-05-17T12:14:39.763Z,100082.62
2019-05-17T12:17:08.208Z,100080.19
2019-05-17T12:19:37.358Z,100081.33
2019-05-17T12:22:05.895Z,100080.05
2019-05-17T12:24:34.316Z,100081.19
2019-05-17T12:27:02.707Z,100077.71
2019-05-17T12:29:31.126Z,100075.78
2019-05-17T12:31:59.539Z,100066.31
2019-05-17T12:34:27.954Z,100076.25
2019-05-17T12:36:56.354Z,100077.20
2019-05-17T12:39:24.770Z,100079.48
2019-05-17T12:41:53.211Z,100082.05
2019-05-17T12:44:21.629Z,100079.54
2019-05-17T12:46:50.040Z,100077.39
2019-05-17T12:49:18.458Z,100074.73
2019-05-17T12:51:46.874Z,100081.11
2019-05-17T12:54:15.290Z,100073.06
2019-05-17T12:56:43.697Z,100072.41
2019-05-17T12:59:12.116Z,100070.08
2019-05-17T13:01:40.525Z,100067.01
2019-05-17T13:04:08.962Z,100066.02
2019-05-17T13:06:37.366Z,100071.17
2019-05-17T13:09:06.508Z,100074.80
2019-05-17T13:11:34.920Z,100072.22
2019-05-17T13:14:03.420Z,100065.55
2019-05-17T13:16:31.819Z,100070.09
2019-05-17T13:19:00.463Z,100067.96
2019-05-17T13:21:28.888Z,100071.09
2019-05-17T13:23:57.311Z,100072.16
2019-05-17T13:26:25.730Z,100071.77
2019-05-17T13:28:54.133Z,100069.02
2019-05-17T13:31:22.557Z,100070.40
2019-05-17T13:33:51.055Z,100074.03
2019-05-17T13:36:19.460Z,100062.84
2019-05-17T13:38:47.876Z,100059.78
2019-05-17T13:41:16.311Z,100068.44
2019-05-17T13:43:44.803Z,100066.46
2019-05-17T13:46:13.220Z,100067.55
2019-05-17T13:48:41.611Z,100062.19
2019-05-17T13:51:10.187Z,100058.64
2019-05-17T13:53:38.597Z,100055.66
2019-05-17T13:56:07.014Z,100060.86
2019-05-17T13:58:35.447Z,100057.64
2019-05-17T14:01:03.851Z,100055.75
2019-05-17T14:03:32.306Z,100049.98
2019-05-17T14:06:00.808Z,100061.61
2019-05-17T14:08:29.253Z,100056.81
2019-05-17T14:10:57.687Z,100059.72
2019-05-17T14:13:26.103Z,100052.94
2019-05-17T14:15:54.517Z,100066.43
2019-05-17T14:18:22.927Z,100060.55
2019-05-17T14:20:51.334Z,100064.30
2019-05-17T14:23:19.738Z,100060.80
2019-05-17T14:25:48.160Z,100062.25
2019-05-17T14:28:16.566Z,100059.27
2019-05-17T14:30:44.974Z,100056.84
2019-05-17T14:33:13.380Z,100058.08
2019-05-17T14:35:41.795Z,100061.78
2019-05-17T14:38:10.214Z,100062.88
2019-05-17T14:41:04.973Z,100064.36
2019-05-17T14:43:08.768Z,100054.19
2019-05-17T14:45:37.182Z,100054.19
2019-05-17T14:48:05.652Z,100050.49
2019-05-17T14:50:34.130Z,100046.43
2019-05-17T14:53:02.541Z,100039.99
2019-05-17T14:55:30.946Z,100049.08
2019-05-17T14:57:59.361Z,100052.33
2019-05-17T15:00:27.777Z,100053.30
2019-05-17T15:02:56.172Z,100046.63
2019-05-17T15:05:24.589Z,100042.55
2019-05-17T15:07:53.006Z,100036.52
2019-05-17T15:10:21.416Z,100036.21
2019-05-17T15:12:49.838Z,100039.83
2019-05-17T15:15:25.650Z,100037.46
2019-05-17T15:17:48.794Z,100038.82
2019-05-17T15:20:17.206Z,100039.63
2019-05-17T15:22:45.628Z,100035.23
2019-05-17T15:25:15.581Z,100036.50
2019-05-17T15:27:43.999Z,100032.06
2019-05-17T15:30:12.747Z,100030.98
2019-05-17T15:32:41.166Z,100032.67
2019-05-17T15:35:09.854Z,100031.37
2019-05-17T15:37:38.273Z,100024.66
2019-05-17T15:40:07.325Z,100020.53
2019-05-17T15:42:43.702Z,100017.77
2019-05-17T15:45:08.758Z,100014.17
2019-05-17T15:47:37.117Z,100016.00
2019-05-17T15:50:07.765Z,100015.81
2019-05-17T15:52:36.279Z,100016.08
2019-05-17T15:55:06.256Z,100011.20
2019-05-17T15:57:34.670Z,100014.89
2019-05-17T16:00:03.576Z,100008.97
2019-05-17T16:02:32.339Z,100009.23
2019-05-17T16:05:00.740Z,100005.06
2019-05-17T16:07:29.217Z,100012.05
2019-05-17T16:09:57.622Z,100009.70
2019-05-17T16:12:26.046Z,100003.71
2019-05-17T16:14:54.702Z,100002.64
2019-05-17T16:17:23.127Z,100005.36
2019-05-17T16:19:51.538Z,100002.64
2019-05-17T16:22:20.042Z,100008.60
2019-05-17T16:24:48.444Z,100008.11
2019-05-17T16:27:16.858Z,100007.36
2019-05-17T16:29:45.262Z,100002.39
2019-05-17T16:32:13.685Z,100000.50
2019-05-17T16:34:42.083Z,99999.61
2019-05-17T16:37:10.482Z,99991.86
2019-05-17T16:39:38.906Z,99983.48
2019-05-17T16:42:07.299Z,99990.46
2019-05-17T16:44:35.714Z,99992.91
2019-05-17T16:47:04.175Z,99988.92
2019-05-17T16:49:32.617Z,99987.52
2019-05-17T16:52:01.101Z,99979.95
2019-05-17T16:54:29.822Z,99983.18
2019-05-17T16:56:58.222Z,99979.51
2019-05-17T16:59:26.629Z,99983.48
2019-05-17T17:01:55.039Z,99983.68
2019-05-17T17:04:23.455Z,99982.29
2019-05-17T17:06:51.854Z,99980.34
2019-05-17T17:09:20.267Z,99981.22
2019-05-17T17:11:48.672Z,99980.80
2019-05-17T17:14:17.075Z,99977.36
2019-05-17T17:16:45.480Z,99973.28
2019-05-17T17:19:13.897Z,99973.72
2019-05-17T17:21:42.465Z,99973.36
2019-05-17T17:24:11.189Z,99971.02
2019-05-17T17:26:39.578Z,99975.06
2019-05-17T17:29:07.984Z,99973.11
2019-05-17T17:31:36.413Z,99976.30
2019-05-17T17:34:04.890Z,99976.22
2019-05-17T17:36:33.293Z,99976.83
2019-05-17T17:39:01.719Z,99969.42
2019-05-17T17:41:30.113Z,99969.36
2019-05-17T17:43:59.388Z,99966.88
2019-05-17T17:46:27.903Z,99967.20
2019-05-17T17:48:56.312Z,99962.55
2019-05-17T17:51:24.735Z,99965.44
2019-05-17T17:53:53.156Z,99962.00
2019-05-17T17:56:21.567Z,99958.27
2019-05-17T17:58:49.970Z,99959.14
2019-05-17T18:01:18.391Z,99968.95
2019-05-17T18:03:46.797Z,99962.87
2019-05-17T18:06:15.304Z,99957.06
2019-05-17T18:08:43.711Z,99959.16
2019-05-17T18:11:12.139Z,99958.40
2019-05-17T18:13:40.549Z,99958.58
2019-05-17T18:16:08.983Z,99961.64
2019-05-17T18:18:37.352Z,99956.16
2019-05-17T18:21:05.761Z,99954.23
2019-05-17T18:23:34.214Z,99955.95
2019-05-17T18:26:02.687Z,99958.61
2019-05-17T18:28:31.057Z,99964.78
2019-05-17T18:30:59.517Z,99962.50
2019-05-17T18:33:27.939Z,99960.70
2019-05-17T18:35:56.638Z,99968.22
2019-05-17T18:38:27.216Z,99964.73
2019-05-17T18:40:55.639Z,99970.70
2019-05-17T18:43:24.039Z,99972.55
2019-05-17T18:45:52.704Z,99971.27
2019-05-17T18:48:21.101Z,99976.99
2019-05-17T18:50:49.508Z,99976.28
2019-05-17T18:53:17.913Z,99972.66
2019-05-17T18:55:46.386Z,99973.47
2019-05-17T18:58:14.783Z,99973.15
2019-05-17T19:00:43.213Z,99980.50
2019-05-17T19:03:11.685Z,99976.51
2019-05-17T19:05:40.097Z,99980.78
2019-05-17T19:08:08.498Z,99981.47
2019-05-17T19:10:36.901Z,99982.11
2019-05-17T19:13:05.300Z,99980.13
2019-05-17T19:15:33.714Z,99983.90
2019-05-17T19:18:02.120Z,99983.06
2019-05-17T19:20:30.574Z,99982.52
2019-05-17T19:22:59.039Z,99983.48
2019-05-17T19:25:27.454Z,99983.65
2019-05-17T19:27:55.859Z,99986.13
2019-05-17T19:30:24.601Z,99993.06
2019-05-17T19:32:53.004Z,99988.08
2019-05-17T19:35:21.456Z,99991.97
2019-05-17T19:37:49.822Z,99994.63
2019-05-17T19:40:18.406Z,99998.81
2019-05-17T19:42:46.820Z,99997.40
2019-05-17T19:45:16.072Z,99996.04
2019-05-17T19:47:44.483Z,100000.08
2019-05-17T19:50:13.136Z,100002.98
2019-05-17T19:52:41.716Z,100001.02
2019-05-17T19:55:10.351Z,100004.38
2019-05-17T19:57:38.773Z,99998.33
2019-05-17T20:00:09.406Z,100002.11
2019-05-17T20:02:37.823Z,100001.77
2019-05-17T20:05:06.777Z,99998.97
2019-05-17T20:07:38.768Z,99999.83
2019-05-17T20:10:09.764Z,100001.08
2019-05-17T20:12:38.195Z,99994.72
2019-05-17T20:15:17.170Z,99986.45
2019-05-17T20:17:38.702Z,99989.06
2019-05-17T20:20:07.848Z,99990.59
2019-05-17T20:22:36.280Z,99985.35
2019-05-17T20:25:06.127Z,99985.48
2019-05-17T20:27:34.555Z,99981.48
2019-05-17T20:30:03.984Z,99981.65
2019-05-17T20:32:32.385Z,99981.14
2019-05-17T20:35:00.788Z,99983.59
2019-05-17T20:37:29.211Z,99974.56
2019-05-17T20:39:57.610Z,99974.64
2019-05-17T20:42:26.037Z,99974.48
2019-05-17T20:44:54.445Z,99972.27
2019-05-17T20:47:23.035Z,99971.06
2019-05-17T20:49:51.439Z,99969.31
2019-05-17T20:52:19.861Z,99966.19
2019-05-17T20:54:48.265Z,99966.60
2019-05-17T20:57:16.716Z,99959.31
2019-05-17T20:59:45.132Z,99961.66
2019-05-17T21:02:13.553Z,99960.75
2019-05-17T21:04:41.971Z,99957.50
2019-05-17T21:07:10.400Z,99960.66
2019-05-17T21:09:38.801Z,99956.95
2019-05-17T21:12:07.300Z,99956.14
2019-05-17T21:14:35.751Z,99959.39
2019-05-17T21:17:04.173Z,99955.39
2019-05-17T21:19:32.591Z,99961.47
2019-05-17T21:22:01.025Z,99960.47
2019-05-17T21:24:29.438Z,99958.80
2019-05-17T21:26:57.858Z,99949.94
2019-05-17T21:29:26.275Z,99955.67
2019-05-17T21:31:54.712Z,99952.93
2019-05-17T21:34:23.126Z,99952.80
2019-05-17T21:36:51.543Z,99951.05
2019-05-17T21:39:19.961Z,99954.96
2019-05-17T21:41:48.363Z,99946.98
2019-05-17T21:44:16.809Z,99945.66
2019-05-17T21:46:45.225Z,99948.72
2019-05-17T21:49:13.647Z,99940.73
2019-05-17T21:51:42.057Z,99946.27
2019-05-17T21:54:10.480Z,99941.66
2019-05-17T21:56:38.886Z,99943.17
2019-05-17T21:59:07.310Z,99947.31
2019-05-17T22:01:35.725Z,99944.94
2019-05-17T22:04:04.217Z,99947.09
2019-05-17T22:06:32.626Z,99938.08
2019-05-17T22:09:01.211Z,99943.84
2019-05-17T22:11:29.759Z,99941.64
2019-05-17T22:13:58.173Z,99936.22
2019-05-17T22:16:26.830Z,99935.50
2019-05-17T22:18:55.254Z,99938.16
2019-05-17T22:21:23.654Z,99936.66
2019-05-17T22:23:52.066Z,99941.42
2019-05-17T22:26:20.479Z,99939.38
2019-05-17T22:28:48.891Z,99930.73
2019-05-17T22:31:17.307Z,99934.34
2019-05-17T22:33:45.719Z,99926.98
2019-05-17T22:36:14.138Z,99932.67
2019-05-17T22:38:42.556Z,99935.50
2019-05-17T22:41:10.975Z,99936.23
2019-05-17T22:43:39.390Z,99932.25
2019-05-17T22:46:07.802Z,99925.48
2019-05-17T22:48:36.227Z,99923.28
2019-05-17T22:51:04.632Z,99929.19
2019-05-17T22:53:33.086Z,99919.08
2019-05-17T22:56:01.497Z,99916.66
2019-05-17T22:58:29.905Z,99915.70
2019-05-17T23:00:58.324Z,99913.44
2019-05-17T23:03:26.745Z,99913.09
2019-05-17T23:05:55.159Z,99911.13
2019-05-17T23:08:23.586Z,99908.52
2019-05-17T23:10:52.024Z,99912.45
2019-05-17T23:13:20.453Z,99902.15
2019-05-17T23:16:01.839Z,99905.30
2019-05-17T23:18:32.170Z,99911.23
2019-05-17T23:21:00.656Z,99907.17
2019-05-17T23:23:29.072Z,99902.22
2019-05-17T23:25:57.474Z,99901.06
2019-05-17T23:28:26.145Z,99897.44
2019-05-17T23:30:54.555Z,99889.05
2019-05-17T23:33:22.978Z,99890.00
2019-05-17T23:35:51.451Z,99888.47
2019-05-17T23:38:19.860Z,99888.84
2019-05-17T23:40:48.282Z,99884.67
2019-05-17T23:43:16.688Z,99882.39
2019-05-17T23:45:45.097Z,99885.52
2019-05-17T23:48:13.509Z,99884.28
2019-05-17T23:50:41.935Z,99884.42
2019-05-17T23:53:10.342Z,99882.53
2019-05-17T23:55:38.758Z,99882.06
2019-05-17T23:58:07.175Z,99881.95
